Time;durP1;ratioP1;P1;durP2;ratioP2;P2;SDS_P1;SDS_P2;PMS_P1;PMS_P2;Temp;Humidity;BMP_temperature;BMP_pressure;BME280_temperature;BME280_humidity;BME280_pressure;Samples;Min_cycle;Max_cycle;Signal;HPM_P1;HPM_P2
2021/03/31 00:01:37;;;;;;;21.65;10.90;;;;;;;;;;5055954;28;31722;-74
2021/03/31 00:04:03;;;;;;;19.80;10.50;;;;;;;;;;5058506;28;32391;-74
2021/03/31 00:06:28;;;;;;;18.33;10.80;;;;;;;;;;5057763;28;33534;-74
2021/03/31 00:08:54;;;;;;;16.13;10.25;;;;;;;;;;5060209;28;32791;-74
2021/03/31 00:11:20;;;;;;;22.48;10.77;;;;;;;;;;5059924;28;30827;-74
2021/03/31 00:13:46;;;;;;;23.55;11.23;;;;;;;;;;5060928;28;32932;-75
2021/03/31 00:16:11;;;;;;;26.90;10.80;;;;;;;;;;5060848;28;32457;-74
2021/03/31 00:18:37;;;;;;;23.48;11.50;;;;;;;;;;5061217;28;32931;-74
2021/03/31 00:21:03;;;;;;;23.73;10.68;;;;;;;;;;5059047;28;30308;-74
2021/03/31 00:23:29;;;;;;;25.20;10.45;;;;;;;;;;5061193;28;31896;-74
2021/03/31 00:25:55;;;;;;;18.98;9.95;;;;;;;;;;5060873;28;32115;-75
2021/03/31 00:28:21;;;;;;;18.98;11.32;;;;;;;;;;5061966;28;32180;-75
2021/03/31 00:30:47;;;;;;;23.42;10.63;;;;;;;;;;5061068;28;31835;-75
2021/03/31 00:33:13;;;;;;;19.80;10.88;;;;;;;;;;5061609;28;32029;-74
2021/03/31 00:35:39;;;;;;;17.52;10.77;;;;;;;;;;5060756;28;32520;-74
2021/03/31 00:38:05;;;;;;;21.65;10.70;;;;;;;;;;5060600;28;33087;-74
2021/03/31 00:40:51;;;;;;;19.00;9.90;;;;;;;;;;5060966;28;32925;-74
2021/03/31 00:43:17;;;;;;;21.85;11.77;;;;;;;;;;5058491;28;31961;-74
2021/03/31 00:45:43;;;;;;;17.98;10.85;;;;;;;;;;5059878;28;32256;-74
2021/03/31 00:48:09;;;;;;;20.58;10.85;;;;;;;;;;5060928;28;33083;-74
2021/03/31 00:50:35;;;;;;;24.40;11.35;;;;;;;;;;5061308;28;32093;-75
2021/03/31 00:53:01;;;;;;;20.92;10.70;;;;;;;;;;5060534;28;32997;-73
2021/03/31 00:55:29;;;;;;;22.88;13.15;;;;;;;;;;5060420;28;33527;-76
2021/03/31 00:57:54;;;;;;;20.80;12.05;;;;;;;;;;5061087;28;33068;-76
2021/03/31 01:00:21;;;;;;;20.23;10.80;;;;;;;;;;5060434;28;31808;-76
2021/03/31 01:02:47;;;;;;;15.70;10.10;;;;;;;;;;5060103;28;31900;-74
2021/03/31 01:05:17;;;;;;;18.75;9.88;;;;;;;;;;5060407;28;33566;-73
2021/03/31 01:07:42;;;;;;;18.95;10.95;;;;;;;;;;5058983;28;31834;-73
2021/03/31 01:10:09;;;;;;;18.42;11.50;;;;;;;;;;5042189;28;31174;-74
2021/03/31 01:12:53;;;;;;;21.25;10.80;;;;;;;;;;5060550;28;32067;-73
2021/03/31 01:15:32;;;;;;;21.73;12.27;;;;;;;;;;5059943;28;33379;-73
2021/03/31 01:18:01;;;;;;;18.40;11.15;;;;;;;;;;5059345;28;32086;-73
2021/03/31 01:20:33;;;;;;;19.70;11.98;;;;;;;;;;5059016;28;32959;-74
2021/03/31 01:23:02;;;;;;;22.08;11.60;;;;;;;;;;5059454;28;32796;-73
2021/03/31 01:25:33;;;;;;;25.70;13.48;;;;;;;;;;5060367;28;32968;-75
2021/03/31 01:28:18;;;;;;;22.13;11.80;;;;;;;;;;5059717;28;32346;-74
2021/03/31 01:30:58;;;;;;;28.08;12.25;;;;;;;;;;5060076;28;32899;-73
2021/03/31 01:33:42;;;;;;;26.50;11.50;;;;;;;;;;5059977;28;31942;-73
2021/03/31 01:36:13;;;;;;;21.67;11.93;;;;;;;;;;5060234;28;31937;-74
2021/03/31 01:38:40;;;;;;;27.38;11.82;;;;;;;;;;5060397;28;32042;-73
2021/03/31 01:41:07;;;;;;;21.40;12.40;;;;;;;;;;5060035;28;32950;-75
2021/03/31 01:43:33;;;;;;;28.90;13.32;;;;;;;;;;5059066;28;31989;-73
2021/03/31 01:45:59;;;;;;;21.00;11.88;;;;;;;;;;5059587;28;32638;-75
2021/03/31 01:48:30;;;;;;;28.63;13.45;;;;;;;;;;5059936;28;32275;-73
2021/03/31 01:50:58;;;;;;;20.70;11.90;;;;;;;;;;5059521;28;31881;-74
2021/03/31 01:53:24;;;;;;;24.65;12.65;;;;;;;;;;5059839;28;31975;-74
2021/03/31 01:55:51;;;;;;;20.92;12.35;;;;;;;;;;5058565;28;31011;-73
2021/03/31 01:58:17;;;;;;;21.75;11.77;;;;;;;;;;5059979;28;31377;-76
2021/03/31 02:00:43;;;;;;;22.45;12.63;;;;;;;;;;5058047;28;31450;-75
2021/03/31 02:03:09;;;;;;;20.38;11.77;;;;;;;;;;5059536;28;32048;-74
2021/03/31 02:05:35;;;;;;;23.23;12.38;;;;;;;;;;5058756;28;33266;-73
2021/03/31 02:08:01;;;;;;;18.98;12.50;;;;;;;;;;5058703;28;32129;-75
2021/03/31 02:10:27;;;;;;;20.92;12.10;;;;;;;;;;5058698;28;31912;-73
2021/03/31 02:12:54;;;;;;;26.25;12.52;;;;;;;;;;5058539;28;32991;-73
2021/03/31 02:15:22;;;;;;;22.95;11.80;;;;;;;;;;5059599;28;32699;-73
2021/03/31 02:17:49;;;;;;;22.25;12.32;;;;;;;;;;5059518;28;32756;-76
2021/03/31 02:20:16;;;;;;;25.30;13.63;;;;;;;;;;5059099;28;32840;-73
2021/03/31 02:22:42;;;;;;;26.17;12.98;;;;;;;;;;5059736;28;31868;-71
2021/03/31 02:25:09;;;;;;;25.27;12.10;;;;;;;;;;5058659;28;33412;-73
2021/03/31 02:27:36;;;;;;;27.73;12.52;;;;;;;;;;5059394;28;32233;-71
2021/03/31 02:30:04;;;;;;;25.17;12.20;;;;;;;;;;5056868;28;32669;-74
2021/03/31 02:32:30;;;;;;;19.83;11.90;;;;;;;;;;5058781;28;32858;-74
2021/03/31 02:34:58;;;;;;;19.75;11.15;;;;;;;;;;5058433;28;32572;-73
2021/03/31 02:37:24;;;;;;;20.77;11.35;;;;;;;;;;5059834;28;33044;-74
2021/03/31 02:39:50;;;;;;;22.27;10.48;;;;;;;;;;5059770;28;32816;-74
2021/03/31 02:42:17;;;;;;;24.13;11.02;;;;;;;;;;5059367;28;30699;-74
2021/03/31 02:44:45;;;;;;;20.52;10.68;;;;;;;;;;5062615;28;32634;-74
2021/03/31 02:47:12;;;;;;;27.98;13.18;;;;;;;;;;5061315;28;32111;-74
2021/03/31 02:49:38;;;;;;;24.50;13.60;;;;;;;;;;5058778;28;31808;-74
2021/03/31 02:52:05;;;;;;;26.92;15.75;;;;;;;;;;5058713;28;32971;-74
2021/03/31 02:54:31;;;;;;;24.60;15.10;;;;;;;;;;5059005;28;32540;-76
2021/03/31 02:56:57;;;;;;;31.50;16.08;;;;;;;;;;5058659;28;32096;-76
2021/03/31 02:59:23;;;;;;;25.95;15.63;;;;;;;;;;5041312;28;30526;-73
2021/03/31 03:01:49;;;;;;;27.30;14.80;;;;;;;;;;5057556;28;32626;-74
2021/03/31 03:04:14;;;;;;;32.50;14.77;;;;;;;;;;5056861;28;32096;-73
2021/03/31 03:06:40;;;;;;;31.55;16.23;;;;;;;;;;5057915;28;32232;-73
2021/03/31 03:09:07;;;;;;;26.92;15.60;;;;;;;;;;5058119;28;31368;-73
2021/03/31 03:11:32;;;;;;;30.13;15.45;;;;;;;;;;5058718;28;31978;-74
2021/03/31 03:13:59;;;;;;;27.00;15.35;;;;;;;;;;5057737;28;33146;-74
2021/03/31 03:16:25;;;;;;;25.15;13.77;;;;;;;;;;5057907;28;32150;-74
2021/03/31 03:18:51;;;;;;;25.52;14.73;;;;;;;;;;5058842;28;31891;-73
2021/03/31 03:21:17;;;;;;;26.50;12.93;;;;;;;;;;5058438;28;32065;-74
2021/03/31 03:23:43;;;;;;;18.95;11.90;;;;;;;;;;5058879;28;32432;-74
2021/03/31 03:26:10;;;;;;;32.90;13.98;;;;;;;;;;5057997;28;32119;-73
2021/03/31 03:28:38;;;;;;;22.60;13.20;;;;;;;;;;5057591;28;32478;-74
2021/03/31 03:31:06;;;;;;;25.10;13.45;;;;;;;;;;5057687;28;32888;-74
2021/03/31 03:33:32;;;;;;;20.15;12.23;;;;;;;;;;5058545;28;32783;-73
2021/03/31 03:35:58;;;;;;;21.48;13.27;;;;;;;;;;5058567;28;32405;-74
2021/03/31 03:38:23;;;;;;;26.17;13.52;;;;;;;;;;5058258;28;31910;-73
2021/03/31 03:40:49;;;;;;;21.92;12.48;;;;;;;;;;5058027;28;32095;-74
2021/03/31 03:43:15;;;;;;;20.88;12.88;;;;;;;;;;5061295;28;32595;-74
2021/03/31 03:45:42;;;;;;;21.67;12.57;;;;;;;;;;5062461;28;32173;-73
2021/03/31 03:48:07;;;;;;;23.88;13.57;;;;;;;;;;5061530;28;32330;-73
2021/03/31 03:50:33;;;;;;;27.33;12.25;;;;;;;;;;5060743;28;31792;-77
2021/03/31 03:52:59;;;;;;;28.25;14.40;;;;;;;;;;5060986;28;32542;-74
2021/03/31 03:55:25;;;;;;;23.92;14.32;;;;;;;;;;5059082;28;31774;-74
2021/03/31 03:57:51;;;;;;;30.60;13.90;;;;;;;;;;5061733;28;31762;-74
2021/03/31 04:00:18;;;;;;;22.27;14.20;;;;;;;;;;5061354;28;31970;-75
2021/03/31 04:02:43;;;;;;;25.63;14.60;;;;;;;;;;5061611;28;32620;-74
2021/03/31 04:05:09;;;;;;;25.42;14.55;;;;;;;;;;5061486;28;33103;-75
2021/03/31 04:07:35;;;;;;;31.45;15.30;;;;;;;;;;5061316;28;32980;-74
2021/03/31 04:10:01;;;;;;;34.83;14.95;;;;;;;;;;5061403;28;32063;-76
2021/03/31 04:12:28;;;;;;;27.73;14.02;;;;;;;;;;5060738;28;31756;-75
2021/03/31 04:14:54;;;;;;;28.70;14.23;;;;;;;;;;5060844;28;33080;-75
2021/03/31 04:17:22;;;;;;;24.48;14.52;;;;;;;;;;5060793;28;32947;-74
2021/03/31 04:19:49;;;;;;;26.48;14.40;;;;;;;;;;5060710;28;32011;-74
2021/03/31 04:22:15;;;;;;;22.20;13.98;;;;;;;;;;5057456;28;32154;-75
2021/03/31 04:24:41;;;;;;;22.88;13.45;;;;;;;;;;5059835;28;32759;-74
2021/03/31 04:27:09;;;;;;;26.38;13.07;;;;;;;;;;5058304;28;31656;-74
2021/03/31 04:29:36;;;;;;;23.38;13.68;;;;;;;;;;5058755;28;31952;-76
2021/03/31 04:32:02;;;;;;;23.98;14.60;;;;;;;;;;5060428;28;32633;-75
2021/03/31 04:34:28;;;;;;;24.27;13.35;;;;;;;;;;5061209;28;33056;-78
2021/03/31 04:36:54;;;;;;;26.75;13.63;;;;;;;;;;5060683;28;31709;-77
2021/03/31 04:39:21;;;;;;;20.52;12.45;;;;;;;;;;5061417;28;32036;-78
2021/03/31 04:41:47;;;;;;;25.90;13.75;;;;;;;;;;5060482;28;32722;-78
2021/03/31 04:44:13;;;;;;;22.05;12.63;;;;;;;;;;5059838;28;32219;-78
2021/03/31 04:46:38;;;;;;;27.02;13.85;;;;;;;;;;5059531;28;32568;-78
2021/03/31 04:49:04;;;;;;;28.30;13.05;;;;;;;;;;5061000;28;32703;-78
2021/03/31 04:51:30;;;;;;;28.25;14.07;;;;;;;;;;5060954;28;32520;-78
2021/03/31 04:53:55;;;;;;;28.73;14.18;;;;;;;;;;5059924;28;32095;-78
2021/03/31 04:56:21;;;;;;;26.35;13.43;;;;;;;;;;5059924;28;32033;-78
2021/03/31 04:58:47;;;;;;;22.98;13.13;;;;;;;;;;5060525;28;32997;-78
2021/03/31 05:01:12;;;;;;;26.45;13.93;;;;;;;;;;5059509;28;32507;-77
2021/03/31 05:03:38;;;;;;;27.55;13.93;;;;;;;;;;5059411;28;32368;-78
2021/03/31 05:06:04;;;;;;;26.10;13.75;;;;;;;;;;5060108;28;32976;-78
2021/03/31 05:08:30;;;;;;;20.30;12.93;;;;;;;;;;5060008;28;31922;-78
2021/03/31 05:10:55;;;;;;;27.70;13.23;;;;;;;;;;5059019;28;33524;-78
2021/03/31 05:13:21;;;;;;;22.90;13.35;;;;;;;;;;5059272;28;33161;-78
2021/03/31 05:15:47;;;;;;;23.65;13.98;;;;;;;;;;5059677;28;32001;-78
2021/03/31 05:18:12;;;;;;;27.45;13.00;;;;;;;;;;5060106;28;32864;-78
2021/03/31 05:20:38;;;;;;;24.83;12.68;;;;;;;;;;5059346;28;32298;-78
2021/03/31 05:23:04;;;;;;;23.67;12.48;;;;;;;;;;5060194;28;32181;-74
2021/03/31 05:25:30;;;;;;;25.80;13.32;;;;;;;;;;5056279;28;30362;-74
2021/03/31 05:27:55;;;;;;;23.10;13.85;;;;;;;;;;5060388;28;32982;-74
2021/03/31 05:30:21;;;;;;;31.20;14.02;;;;;;;;;;5058620;28;32311;-75
2021/03/31 05:32:47;;;;;;;25.02;12.57;;;;;;;;;;5060339;28;32880;-73
2021/03/31 05:35:13;;;;;;;26.27;14.07;;;;;;;;;;5059999;28;31996;-76
2021/03/31 05:37:39;;;;;;;28.70;14.50;;;;;;;;;;5040513;28;32274;-74
2021/03/31 05:40:05;;;;;;;25.48;14.18;;;;;;;;;;5054502;28;33523;-73
2021/03/31 05:42:34;;;;;;;27.50;13.63;;;;;;;;;;5058126;28;31946;-73
2021/03/31 05:45:01;;;;;;;18.40;12.43;;;;;;;;;;5059197;28;31975;-75
2021/03/31 05:47:34;;;;;;;24.17;12.90;;;;;;;;;;5058371;28;33147;-78
2021/03/31 05:50:00;;;;;;;30.55;13.98;;;;;;;;;;5051125;28;32547;-75
2021/03/31 05:52:25;;;;;;;28.02;13.23;;;;;;;;;;5065814;28;32011;-79
2021/03/31 05:54:51;;;;;;;29.10;14.80;;;;;;;;;;5066636;28;31970;-76
2021/03/31 05:57:18;;;;;;;29.80;15.77;;;;;;;;;;5076934;28;32617;-80
2021/03/31 05:59:44;;;;;;;37.42;16.20;;;;;;;;;;5047863;28;31942;-79
2021/03/31 06:02:10;;;;;;;41.15;16.55;;;;;;;;;;5051000;28;32763;-75
2021/03/31 06:04:36;;;;;;;41.35;17.90;;;;;;;;;;5058657;28;31336;-74
2021/03/31 06:07:02;;;;;;;33.63;16.88;;;;;;;;;;5053326;28;31945;-74
2021/03/31 06:09:28;;;;;;;34.55;16.90;;;;;;;;;;5057031;28;33465;-76
2021/03/31 06:12:00;;;;;;;36.67;16.10;;;;;;;;;;5058308;28;32279;-75
2021/03/31 06:14:34;;;;;;;33.97;16.45;;;;;;;;;;5064902;28;31843;-77
2021/03/31 06:17:03;;;;;;;35.20;14.85;;;;;;;;;;5061900;28;32978;-74
2021/03/31 06:19:29;;;;;;;34.05;14.93;;;;;;;;;;5044807;28;32530;-74
2021/03/31 06:21:56;;;;;;;27.20;14.82;;;;;;;;;;5038083;28;32223;-73
2021/03/31 06:24:25;;;;;;;29.33;13.95;;;;;;;;;;5040109;28;33087;-74
2021/03/31 06:26:51;;;;;;;26.63;13.77;;;;;;;;;;5061027;28;31898;-73
2021/03/31 06:29:17;;;;;;;21.50;12.98;;;;;;;;;;5060666;28;32554;-73
2021/03/31 06:31:44;;;;;;;21.73;13.45;;;;;;;;;;5067177;28;30686;-73
2021/03/31 06:34:15;;;;;;;25.40;13.98;;;;;;;;;;5065224;28;31676;-76
2021/03/31 06:36:47;;;;;;;23.92;13.38;;;;;;;;;;5051045;28;32065;-76
2021/03/31 06:39:17;;;;;;;26.10;13.73;;;;;;;;;;5051822;28;32582;-74
2021/03/31 06:41:49;;;;;;;28.15;13.45;;;;;;;;;;5065869;28;32135;-75
2021/03/31 06:44:20;;;;;;;22.98;12.68;;;;;;;;;;5064878;28;32994;-73
2021/03/31 06:46:52;;;;;;;33.75;13.25;;;;;;;;;;5063301;28;32738;-75
2021/03/31 06:49:18;;;;;;;26.63;12.73;;;;;;;;;;5074051;28;32607;-73
2021/03/31 06:51:44;;;;;;;24.52;13.23;;;;;;;;;;5049269;28;32928;-74
2021/03/31 06:54:13;;;;;;;24.80;12.85;;;;;;;;;;5062002;28;31921;-74
2021/03/31 06:56:39;;;;;;;37.17;13.75;;;;;;;;;;5054887;28;32476;-77
2021/03/31 06:59:06;;;;;;;22.25;12.60;;;;;;;;;;5067808;28;32711;-74
2021/03/31 07:01:32;;;;;;;27.17;12.95;;;;;;;;;;5071950;28;32195;-73
2021/03/31 07:04:00;;;;;;;24.77;13.73;;;;;;;;;;5063369;28;31594;-73
2021/03/31 07:06:26;;;;;;;32.78;13.77;;;;;;;;;;5061713;28;32975;-72
2021/03/31 07:08:52;;;;;;;28.23;13.98;;;;;;;;;;5065982;28;32439;-73
2021/03/31 07:11:36;;;;;;;31.33;13.68;;;;;;;;;;5063738;28;32150;-73
2021/03/31 07:14:03;;;;;;;27.60;13.38;;;;;;;;;;5063119;28;32933;-72
2021/03/31 07:16:32;;;;;;;29.38;14.48;;;;;;;;;;5055690;28;32745;-72
2021/03/31 07:18:58;;;;;;;24.33;12.27;;;;;;;;;;5055628;28;32465;-71
2021/03/31 07:21:25;;;;;;;23.42;13.30;;;;;;;;;;5054356;28;32408;-71
2021/03/31 07:23:51;;;;;;;25.27;11.90;;;;;;;;;;5054788;28;32941;-72
2021/03/31 07:26:20;;;;;;;35.90;13.07;;;;;;;;;;5051957;28;31941;-72
2021/03/31 07:28:49;;;;;;;25.50;12.35;;;;;;;;;;5051682;28;20097;-70
2021/03/31 07:31:19;;;;;;;23.58;12.25;;;;;;;;;;5053457;28;31916;-70
2021/03/31 07:33:48;;;;;;;20.80;11.82;;;;;;;;;;5049293;28;32431;-72
2021/03/31 07:36:16;;;;;;;32.70;12.15;;;;;;;;;;5050385;28;32641;-71
2021/03/31 07:38:43;;;;;;;22.13;11.25;;;;;;;;;;5050719;28;33146;-71
2021/03/31 07:41:09;;;;;;;24.08;11.48;;;;;;;;;;5052520;28;31910;-71
2021/03/31 07:43:39;;;;;;;29.02;11.18;;;;;;;;;;5047674;28;32586;-71
2021/03/31 07:46:08;;;;;;;23.65;12.23;;;;;;;;;;5050090;28;32741;-71
2021/03/31 07:48:34;;;;;;;25.75;11.98;;;;;;;;;;5049421;28;33605;-71
2021/03/31 07:51:16;;;;;;;27.10;11.38;;;;;;;;;;5047306;28;31999;-71
2021/03/31 07:53:43;;;;;;;31.60;10.98;;;;;;;;;;5051358;28;31966;-71
2021/03/31 07:56:13;;;;;;;22.00;11.05;;;;;;;;;;5050616;28;33057;-71
2021/03/31 07:58:39;;;;;;;27.13;11.80;;;;;;;;;;5051947;28;32596;-72
2021/03/31 08:01:07;;;;;;;22.88;10.77;;;;;;;;;;5050210;28;31821;-72
2021/03/31 08:03:34;;;;;;;24.98;11.88;;;;;;;;;;5048311;28;32050;-72
2021/03/31 08:06:00;;;;;;;23.20;10.98;;;;;;;;;;5050722;28;33007;-73
2021/03/31 08:08:25;;;;;;;15.82;7.40;;;;;;;;;;5051315;28;33572;-72
2021/03/31 08:10:51;;;;;;;12.18;5.88;;;;;;;;;;5042608;28;32179;-70
2021/03/31 08:13:27;;;;;;;16.58;8.85;;;;;;;;;;5048293;28;32319;-70
2021/03/31 08:15:53;;;;;;;9.48;4.65;;;;;;;;;;5051640;28;31908;-71
2021/03/31 08:18:19;;;;;;;12.02;5.65;;;;;;;;;;5050039;28;32417;-71
2021/03/31 08:20:45;;;;;;;12.80;6.03;;;;;;;;;;5050437;28;32518;-72
2021/03/31 08:23:11;;;;;;;13.25;7.40;;;;;;;;;;5051132;28;32571;-73
2021/03/31 08:25:37;;;;;;;9.70;5.30;;;;;;;;;;5050320;28;33928;-70
2021/03/31 08:28:05;;;;;;;16.67;7.57;;;;;;;;;;5050359;28;32626;-71
2021/03/31 08:30:32;;;;;;;10.63;5.32;;;;;;;;;;5053719;28;31764;-71
2021/03/31 08:32:57;;;;;;;23.95;10.48;;;;;;;;;;5049704;28;32037;-72
2021/03/31 08:35:24;;;;;;;28.60;9.80;;;;;;;;;;5057059;28;33058;-71
2021/03/31 08:37:50;;;;;;;10.52;5.95;;;;;;;;;;5055298;28;32632;-71
2021/03/31 08:40:16;;;;;;;12.40;5.38;;;;;;;;;;5053807;28;31958;-78
2021/03/31 08:42:49;;;;;;;15.50;6.80;;;;;;;;;;5051784;28;31946;-70
2021/03/31 08:45:27;;;;;;;12.50;6.82;;;;;;;;;;5049101;28;32781;-70
2021/03/31 08:47:53;;;;;;;16.50;7.05;;;;;;;;;;5053935;28;32152;-70
2021/03/31 08:50:23;;;;;;;18.40;7.47;;;;;;;;;;5053533;28;32164;-71
2021/03/31 08:52:56;;;;;;;18.33;7.80;;;;;;;;;;5049768;28;31493;-70
2021/03/31 08:55:21;;;;;;;17.92;8.10;;;;;;;;;;5052144;28;31998;-72
2021/03/31 08:57:47;;;;;;;17.77;7.45;;;;;;;;;;5055718;28;32675;-71
2021/03/31 09:00:13;;;;;;;31.65;11.52;;;;;;;;;;5053941;28;33207;-71
2021/03/31 09:02:43;;;;;;;14.25;6.97;;;;;;;;;;5055938;28;31980;-71
2021/03/31 09:05:09;;;;;;;14.02;5.53;;;;;;;;;;5055967;28;32338;-71
2021/03/31 09:07:35;;;;;;;22.00;10.45;;;;;;;;;;5055825;28;32697;-71
2021/03/31 09:10:02;;;;;;;11.77;5.80;;;;;;;;;;5055013;28;32227;-71
2021/03/31 09:12:29;;;;;;;12.18;5.50;;;;;;;;;;5055214;28;39198;-71
2021/03/31 09:14:56;;;;;;;22.48;10.65;;;;;;;;;;5064944;28;31923;-72
2021/03/31 09:17:26;;;;;;;15.65;7.22;;;;;;;;;;5064416;28;32421;-72
2021/03/31 09:19:53;;;;;;;25.27;8.88;;;;;;;;;;5066628;28;32836;-72
2021/03/31 09:22:22;;;;;;;17.42;7.32;;;;;;;;;;5062169;28;33224;-71
2021/03/31 09:24:49;;;;;;;20.45;9.50;;;;;;;;;;5065363;28;31764;-72
2021/03/31 09:27:18;;;;;;;29.00;13.48;;;;;;;;;;5061607;28;32598;-72
2021/03/31 09:29:46;;;;;;;35.63;15.50;;;;;;;;;;5067159;28;32073;-72
2021/03/31 09:32:15;;;;;;;29.90;12.50;;;;;;;;;;5069791;28;31814;-71
2021/03/31 09:34:41;;;;;;;22.08;8.52;;;;;;;;;;5064100;28;31709;-71
2021/03/31 09:37:12;;;;;;;17.20;7.18;;;;;;;;;;5061175;28;32098;-72
2021/03/31 09:39:41;;;;;;;13.73;6.28;;;;;;;;;;5063941;28;32162;-73
2021/03/31 09:42:07;;;;;;;15.68;6.70;;;;;;;;;;5065179;28;32799;-71
2021/03/31 09:44:33;;;;;;;14.50;6.65;;;;;;;;;;5058628;28;32781;-73
2021/03/31 09:47:00;;;;;;;33.10;12.68;;;;;;;;;;5064527;28;32240;-72
2021/03/31 09:49:26;;;;;;;17.98;7.22;;;;;;;;;;5063336;28;32270;-71
2021/03/31 09:51:52;;;;;;;14.93;6.22;;;;;;;;;;5062826;28;31930;-72
2021/03/31 09:54:18;;;;;;;19.25;8.15;;;;;;;;;;5042121;28;31935;-72
2021/03/31 09:56:44;;;;;;;38.03;14.63;;;;;;;;;;5048832;28;33642;-72
2021/03/31 09:59:10;;;;;;;17.83;8.18;;;;;;;;;;5037807;28;30785;-72
2021/03/31 10:01:36;;;;;;;16.27;7.82;;;;;;;;;;5056489;28;31788;-72
2021/03/31 10:04:03;;;;;;;19.98;7.70;;;;;;;;;;5058041;28;32006;-72
2021/03/31 10:06:29;;;;;;;16.70;6.68;;;;;;;;;;5053583;28;33200;-71
2021/03/31 10:08:54;;;;;;;17.27;7.80;;;;;;;;;;5054801;28;32869;-72
2021/03/31 10:11:24;;;;;;;22.15;8.07;;;;;;;;;;5053312;28;32179;-71
2021/03/31 10:13:49;;;;;;;18.10;8.05;;;;;;;;;;5051945;28;31755;-72
2021/03/31 10:16:15;;;;;;;15.45;7.80;;;;;;;;;;5055512;28;32140;-72
2021/03/31 10:18:41;;;;;;;13.98;6.55;;;;;;;;;;5053253;28;32452;-71
2021/03/31 10:21:06;;;;;;;15.82;5.55;;;;;;;;;;5053026;28;32249;-70
2021/03/31 10:23:34;;;;;;;18.92;8.32;;;;;;;;;;5051832;28;31742;-71
2021/03/31 10:26:18;;;;;;;20.08;8.25;;;;;;;;;;5050687;28;32745;-71
2021/03/31 10:28:45;;;;;;;24.88;9.52;;;;;;;;;;5054285;28;32109;-72
2021/03/31 10:31:20;;;;;;;21.35;8.07;;;;;;;;;;5055273;28;32163;-70
2021/03/31 10:33:46;;;;;;;23.42;10.30;;;;;;;;;;5065151;28;39860;-72
2021/03/31 10:36:30;;;;;;;21.20;9.27;;;;;;;;;;5059907;28;33556;-72
2021/03/31 10:39:26;;;;;;;21.98;9.40;;;;;;;;;;5067437;28;32210;-72
2021/03/31 10:46:49;;;;;;;21.13;9.85;;;;;;;;;;5062924;28;32830;-72
2021/03/31 10:50:24;;;;;;;28.23;10.40;;;;;;;;;;5035770;28;30987;-70
2021/03/31 10:52:56;;;;;;;22.88;9.88;;;;;;;;;;5062315;28;31539;-71
2021/03/31 10:55:21;;;;;;;20.70;9.02;;;;;;;;;;5060138;28;32952;-70
2021/03/31 10:57:47;;;;;;;18.08;7.40;;;;;;;;;;5067079;28;32664;-72
2021/03/31 11:00:13;;;;;;;27.13;8.80;;;;;;;;;;5067185;28;32747;-71
2021/03/31 11:02:39;;;;;;;24.95;10.50;;;;;;;;;;5065004;28;31721;-71
2021/03/31 11:05:05;;;;;;;23.90;9.88;;;;;;;;;;5066162;28;31881;-72
2021/03/31 11:07:30;;;;;;;20.67;7.70;;;;;;;;;;5065146;28;33042;-73
2021/03/31 11:09:56;;;;;;;21.63;10.57;;;;;;;;;;5062491;28;32772;-72
2021/03/31 11:12:22;;;;;;;33.90;11.07;;;;;;;;;;5063009;28;31915;-73
2021/03/31 11:14:47;;;;;;;25.45;10.23;;;;;;;;;;5066182;28;31981;-72
2021/03/31 11:17:20;;;;;;;20.13;8.82;;;;;;;;;;5063249;28;32413;-73
2021/03/31 11:27:43;;;;;;;28.25;11.35;;;;;;;;;;5060612;28;32573;-71
2021/03/31 11:30:10;;;;;;;28.08;9.68;;;;;;;;;;5065703;28;32326;-70
2021/03/31 11:32:36;;;;;;;27.17;11.00;;;;;;;;;;5064762;28;30670;-72
2021/03/31 11:35:02;;;;;;;28.55;10.60;;;;;;;;;;5066410;28;31957;-73
2021/03/31 11:37:28;;;;;;;20.77;9.00;;;;;;;;;;5059836;28;32856;-70
2021/03/31 11:39:53;;;;;;;18.88;8.07;;;;;;;;;;5065779;28;32944;-71
2021/03/31 11:42:19;;;;;;;31.88;12.95;;;;;;;;;;5066371;28;32074;-71
2021/03/31 11:44:45;;;;;;;36.67;13.82;;;;;;;;;;5063397;28;31822;-70
2021/03/31 11:47:11;;;;;;;23.95;9.32;;;;;;;;;;5064686;28;32289;-73
2021/03/31 11:49:36;;;;;;;32.00;11.63;;;;;;;;;;5049333;28;32681;-72
2021/03/31 11:52:03;;;;;;;46.72;17.38;;;;;;;;;;5061428;28;31594;-72
2021/03/31 11:54:29;;;;;;;49.78;18.25;;;;;;;;;;5036151;28;31638;-72
2021/03/31 11:56:54;;;;;;;41.88;15.70;;;;;;;;;;5035070;28;32451;-72
2021/03/31 11:59:21;;;;;;;26.05;11.07;;;;;;;;;;5036523;28;33055;-72
2021/03/31 12:01:47;;;;;;;29.48;11.98;;;;;;;;;;5036365;28;31918;-72
2021/03/31 12:04:12;;;;;;;44.47;16.13;;;;;;;;;;5040375;28;32750;-72
2021/03/31 12:06:38;;;;;;;26.42;10.15;;;;;;;;;;5039722;28;32552;-73
2021/03/31 12:09:06;;;;;;;27.33;9.18;;;;;;;;;;5042506;28;31444;-73
2021/03/31 12:11:32;;;;;;;25.27;9.88;;;;;;;;;;5068541;28;31722;-72
2021/03/31 12:13:58;;;;;;;22.95;9.35;;;;;;;;;;5070017;28;31984;-73
2021/03/31 12:16:24;;;;;;;27.30;10.20;;;;;;;;;;5060120;28;32626;-73
2021/03/31 12:18:49;;;;;;;21.52;8.98;;;;;;;;;;5044962;28;32375;-73
2021/03/31 12:21:15;;;;;;;19.35;7.63;;;;;;;;;;5039757;28;32560;-74
2021/03/31 12:23:41;;;;;;;19.80;7.80;;;;;;;;;;5039408;28;31473;-74
2021/03/31 12:26:07;;;;;;;20.42;8.52;;;;;;;;;;5055560;28;32315;-73
2021/03/31 12:28:35;;;;;;;20.73;6.20;;;;;;;;;;5059212;28;31071;-73
2021/03/31 12:31:01;;;;;;;18.80;7.10;;;;;;;;;;5060770;28;32840;-74
2021/03/31 12:33:27;;;;;;;30.08;11.80;;;;;;;;;;5060408;28;32062;-73
2021/03/31 12:35:52;;;;;;;25.55;10.43;;;;;;;;;;5059618;28;32599;-73
2021/03/31 12:38:20;;;;;;;51.33;15.65;;;;;;;;;;5059911;28;32578;-74
2021/03/31 12:40:47;;;;;;;40.60;14.25;;;;;;;;;;5060083;28;31901;-73
2021/03/31 12:43:13;;;;;;;22.98;10.57;;;;;;;;;;5059713;28;33043;-74
2021/03/31 12:45:39;;;;;;;20.65;8.93;;;;;;;;;;5057392;28;30900;-73
2021/03/31 12:48:06;;;;;;;17.17;6.82;;;;;;;;;;5057840;28;32122;-73
2021/03/31 12:50:32;;;;;;;14.85;7.75;;;;;;;;;;5066717;28;31440;-72
2021/03/31 12:53:00;;;;;;;14.27;6.47;;;;;;;;;;5070120;28;32100;-72
2021/03/31 12:55:32;;;;;;;16.77;6.93;;;;;;;;;;5071394;28;33654;-73
2021/03/31 12:58:03;;;;;;;16.55;7.10;;;;;;;;;;5069217;28;31934;-74
2021/03/31 13:00:28;;;;;;;14.07;6.22;;;;;;;;;;5067875;28;31438;-72
2021/03/31 13:02:54;;;;;;;18.45;6.72;;;;;;;;;;5069988;28;31943;-73
2021/03/31 13:05:20;;;;;;;17.55;6.63;;;;;;;;;;5070144;28;33216;-74
2021/03/31 13:07:46;;;;;;;16.42;6.28;;;;;;;;;;5059927;28;32080;-74
2021/03/31 13:10:12;;;;;;;16.60;6.30;;;;;;;;;;5059152;28;36612;-73
2021/03/31 13:12:52;;;;;;;17.42;6.60;;;;;;;;;;5059159;28;32110;-69
2021/03/31 13:23:27;;;;;;;20.73;9.65;;;;;;;;;;5060031;28;32688;-74
2021/03/31 13:26:07;;;;;;;36.85;13.57;;;;;;;;;;5062399;28;33571;-70
2021/03/31 13:31:05;;;;;;;46.47;14.40;;;;;;;;;;5060329;28;32973;-71
2021/03/31 13:33:44;;;;;;;14.63;7.10;;;;;;;;;;5059380;28;31932;-75
2021/03/31 13:36:23;;;;;;;18.60;7.18;;;;;;;;;;5060441;28;32560;-70
2021/03/31 13:41:14;;;;;;;42.47;16.88;;;;;;;;;;5068930;28;32869;-71
2021/03/31 13:43:40;;;;;;;20.55;7.93;;;;;;;;;;5069932;28;32653;-72
2021/03/31 13:46:05;;;;;;;22.77;7.85;;;;;;;;;;5070466;28;32180;-72
2021/03/31 13:48:48;;;;;;;17.05;5.93;;;;;;;;;;5065257;28;32819;-71
2021/03/31 13:51:13;;;;;;;15.13;7.55;;;;;;;;;;5065217;28;31545;-70
2021/03/31 13:53:40;;;;;;;16.38;7.80;;;;;;;;;;5068893;28;35730;-71
2021/03/31 13:56:14;;;;;;;15.60;5.85;;;;;;;;;;5070436;28;33331;-70
2021/03/31 13:58:40;;;;;;;18.38;5.25;;;;;;;;;;5065809;28;31174;-73
2021/03/31 14:01:06;;;;;;;15.68;6.55;;;;;;;;;;5067740;28;32900;-74
2021/03/31 14:03:31;;;;;;;9.52;4.93;;;;;;;;;;5068718;28;30663;-74
2021/03/31 14:05:57;;;;;;;33.72;12.63;;;;;;;;;;5068097;28;32363;-73
2021/03/31 14:08:23;;;;;;;33.10;12.25;;;;;;;;;;5067878;28;31956;-73
2021/03/31 14:10:50;;;;;;;18.38;7.88;;;;;;;;;;5068702;28;31937;-74
2021/03/31 14:13:15;;;;;;;18.80;8.00;;;;;;;;;;5068093;28;32850;-73
2021/03/31 14:15:41;;;;;;;14.20;6.25;;;;;;;;;;5067901;28;32123;-72
2021/03/31 14:18:07;;;;;;;20.30;7.38;;;;;;;;;;5068306;28;32817;-72
2021/03/31 14:20:33;;;;;;;13.02;5.30;;;;;;;;;;5060391;28;32875;-73
2021/03/31 14:22:58;;;;;;;9.82;4.63;;;;;;;;;;5064118;28;32766;-73
2021/03/31 14:25:27;;;;;;;21.25;7.07;;;;;;;;;;5067989;28;32585;-79
2021/03/31 14:27:52;;;;;;;14.80;5.47;;;;;;;;;;5057081;28;32403;-73
2021/03/31 14:30:19;;;;;;;15.32;6.22;;;;;;;;;;5062680;28;30665;-73
2021/03/31 14:32:45;;;;;;;15.23;6.85;;;;;;;;;;5067430;28;32440;-73
2021/03/31 14:35:12;;;;;;;16.65;5.32;;;;;;;;;;5066076;28;31283;-74
2021/03/31 14:37:38;;;;;;;13.82;6.38;;;;;;;;;;5068412;28;31842;-74
2021/03/31 14:40:05;;;;;;;24.85;9.82;;;;;;;;;;5065457;28;32842;-74
2021/03/31 14:42:31;;;;;;;15.25;6.35;;;;;;;;;;5067311;28;31905;-73
2021/03/31 14:44:58;;;;;;;24.40;9.27;;;;;;;;;;5068677;28;32486;-69
2021/03/31 14:47:25;;;;;;;15.88;7.00;;;;;;;;;;5066817;28;30691;-72
2021/03/31 14:49:50;;;;;;;23.13;8.73;;;;;;;;;;5068180;28;32676;-71